Overview Statistics Trail Chart Weather Telemetry Raw packets
 

This is the latest recevied weather packets stored in our database for station/object KO4DYK. If no packets are shown the sender has not sent any weather packets the latest 10 day(s).

<< 56 57 58 59 60 61 62 >>
Time Temp. Humidity Pressure Rain* Wind** Luminosity Snow
1788278131 35.56° C 58% 1021.3 hPa 0 mm - 673 W/m² -
1788277827 35.56° C 58% 1021.2 hPa 0 mm - 591 W/m² -
1788277526 35° C 60% 1021.2 hPa 0 mm - 569 W/m² -
1788277222 35° C 62% 1021.2 hPa 0 mm - 521 W/m² -
1788276917 35° C 61% 1021.4 hPa 0 mm - 632 W/m² -
1788276617 35° C 62% 1021.4 hPa 0 mm - 569 W/m² -
1788276317 34.44° C 64% 1021.3 hPa 0 mm - 507 W/m² -
1788276025 33.33° C 67% 1021.2 hPa 0 mm - 546 W/m² -
1788275711 33.89° C 65% 1021.3 hPa 0 mm - 569 W/m² -
1788275411 34.44° C 63% 1021.2 hPa 0 mm - 479 W/m² -
1788275126 33.89° C 67% 1021.1 hPa 0 mm - 462 W/m² -
1788274807 33.33° C 67% 1021.3 hPa 0 mm - 473 W/m² -
1788274501 33.33° C 69% 1021.2 hPa 0 mm - 444 W/m² -
1788274200 32.78° C 70% 1021.3 hPa 0 mm - 431 W/m² -
1788273896 33.89° C 69% 1021.1 hPa 0 mm - 465 W/m² -
1788273591 33.33° C 70% 1021.1 hPa 0 mm - 446 W/m² -
1788273287 33.33° C 71% 1021 hPa 0 mm - 413 W/m² -
1788272984 32.78° C 72% 1021.2 hPa 0 mm - 377 W/m² -
1788272678 32.78° C 74% 1021.1 hPa 0 mm - 337 W/m² -
1788272372 31.67° C 75% 1021.2 hPa 0 mm - 327 W/m² -
1788272067 30.56° C 77% 1021.2 hPa 0 mm - 306 W/m² -
1788271768 30.56° C 80% 1021.2 hPa 0 mm - 251 W/m² -
1788271465 30.56° C 81% 1021.4 hPa 0 mm - 287 W/m² -
1788271160 29.44° C 83% 1021.3 hPa 0 mm - 255 W/m² -
1788270855 28.89° C 84% 1021.3 hPa 0 mm - 240 W/m² -

* Rain latest hour (hover to see other rain measurements)
** Current wind speed in m/s (hover to see current wind gust speed)